sensor_id;sensor_type;location;lat;lon;timestamp;P1;durP1;ratioP1;P2;durP2;ratioP2
16673;SDS011;8450;52.654;10.326;2023-05-10T04:24:07;4.90;;;4.40;;
16673;SDS011;8450;52.654;10.326;2023-05-10T04:26:33;5.47;;;4.97;;
16673;SDS011;8450;52.654;10.326;2023-05-10T04:28:58;4.17;;;3.80;;
16673;SDS011;8450;52.654;10.326;2023-05-10T04:31:24;4.83;;;4.43;;
16673;SDS011;8450;52.654;10.326;2023-05-10T04:33:50;6.10;;;4.53;;
16673;SDS011;8450;52.654;10.326;2023-05-10T04:36:15;6.93;;;4.60;;
16673;SDS011;8450;52.654;10.326;2023-05-10T04:38:41;4.63;;;4.17;;
16673;SDS011;8450;52.654;10.326;2023-05-10T04:41:07;5.73;;;4.17;;
16673;SDS011;8450;52.654;10.326;2023-05-10T04:43:34;4.67;;;4.30;;
16673;SDS011;8450;52.654;10.326;2023-05-10T04:46:00;4.80;;;3.97;;
16673;SDS011;8450;52.654;10.326;2023-05-10T04:48:25;5.67;;;5.00;;
16673;SDS011;8450;52.654;10.326;2023-05-10T04:50:51;4.90;;;4.50;;
16673;SDS011;8450;52.654;10.326;2023-05-10T04:53:17;5.00;;;4.50;;
16673;SDS011;8450;52.654;10.326;2023-05-10T04:55:42;4.93;;;4.43;;
16673;SDS011;8450;52.654;10.326;2023-05-10T04:58:08;4.63;;;4.13;;
16673;SDS011;8450;52.654;10.326;2023-05-10T05:00:33;5.00;;;4.50;;
16673;SDS011;8450;52.654;10.326;2023-05-10T05:02:59;4.57;;;4.17;;
16673;SDS011;8450;52.654;10.326;2023-05-10T05:05:25;5.23;;;4.73;;
16673;SDS011;8450;52.654;10.326;2023-05-10T05:07:50;4.33;;;3.93;;
16673;SDS011;8450;52.654;10.326;2023-05-10T05:10:16;5.60;;;4.00;;
16673;SDS011;8450;52.654;10.326;2023-05-10T05:12:41;4.40;;;4.10;;
16673;SDS011;8450;52.654;10.326;2023-05-10T05:15:07;5.90;;;3.93;;
16673;SDS011;8450;52.654;10.326;2023-05-10T05:17:36;4.40;;;4.00;;
16673;SDS011;8450;52.654;10.326;2023-05-10T05:20:01;4.30;;;4.00;;
16673;SDS011;8450;52.654;10.326;2023-05-10T05:22:28;4.47;;;4.07;;
16673;SDS011;8450;52.654;10.326;2023-05-10T05:24:54;4.67;;;4.10;;
16673;SDS011;8450;52.654;10.326;2023-05-10T05:27:20;4.83;;;4.33;;
16673;SDS011;8450;52.654;10.326;2023-05-10T05:29:55;4.83;;;4.30;;
16673;SDS011;8450;52.654;10.326;2023-05-10T05:32:22;4.57;;;4.10;;
16673;SDS011;8450;52.654;10.326;2023-05-10T05:34:48;4.23;;;3.83;;
16673;SDS011;8450;52.654;10.326;2023-05-10T05:37:14;4.27;;;3.93;;
16673;SDS011;8450;52.654;10.326;2023-05-10T05:39:40;5.73;;;4.30;;
16673;SDS011;8450;52.654;10.326;2023-05-10T05:42:05;4.17;;;3.77;;
16673;SDS011;8450;52.654;10.326;2023-05-10T05:44:31;4.77;;;4.27;;
16673;SDS011;8450;52.654;10.326;2023-05-10T05:46:57;4.47;;;3.97;;
16673;SDS011;8450;52.654;10.326;2023-05-10T05:49:22;4.67;;;4.13;;
16673;SDS011;8450;52.654;10.326;2023-05-10T05:51:48;4.50;;;4.10;;
16673;SDS011;8450;52.654;10.326;2023-05-10T05:54:15;4.50;;;4.10;;
16673;SDS011;8450;52.654;10.326;2023-05-10T05:56:41;4.03;;;3.63;;
16673;SDS011;8450;52.654;10.326;2023-05-10T05:59:06;4.60;;;4.10;;
16673;SDS011;8450;52.654;10.326;2023-05-10T06:01:32;4.60;;;4.20;;
16673;SDS011;8450;52.654;10.326;2023-05-10T06:03:58;4.50;;;4.10;;
16673;SDS011;8450;52.654;10.326;2023-05-10T06:06:23;6.07;;;3.90;;
16673;SDS011;8450;52.654;10.326;2023-05-10T06:08:49;4.23;;;3.93;;
16673;SDS011;8450;52.654;10.326;2023-05-10T06:11:15;5.47;;;4.20;;
16673;SDS011;8450;52.654;10.326;2023-05-10T06:13:40;5.17;;;4.20;;
16673;SDS011;8450;52.654;10.326;2023-05-10T06:16:07;5.43;;;4.10;;
16673;SDS011;8450;52.654;10.326;2023-05-10T06:18:32;4.50;;;4.10;;
16673;SDS011;8450;52.654;10.326;2023-05-10T06:20:58;4.10;;;3.70;;
16673;SDS011;8450;52.654;10.326;2023-05-10T06:23:24;4.30;;;3.90;;
16673;SDS011;8450;52.654;10.326;2023-05-10T06:25:50;4.00;;;3.70;;
16673;SDS011;8450;52.654;10.326;2023-05-10T06:28:16;4.67;;;4.17;;
16673;SDS011;8450;52.654;10.326;2023-05-10T06:30:42;4.60;;;4.20;;
16673;SDS011;8450;52.654;10.326;2023-05-10T06:33:07;4.20;;;3.80;;
16673;SDS011;8450;52.654;10.326;2023-05-10T06:35:33;4.27;;;3.87;;
16673;SDS011;8450;52.654;10.326;2023-05-10T06:37:59;4.37;;;4.00;;
16673;SDS011;8450;52.654;10.326;2023-05-10T06:40:24;4.60;;;4.20;;
16673;SDS011;8450;52.654;10.326;2023-05-10T06:42:50;4.77;;;4.23;;
16673;SDS011;8450;52.654;10.326;2023-05-10T06:45:16;3.90;;;3.60;;
16673;SDS011;8450;52.654;10.326;2023-05-10T06:47:42;4.33;;;3.93;;
16673;SDS011;8450;52.654;10.326;2023-05-10T06:50:08;3.53;;;3.23;;
16673;SDS011;8450;52.654;10.326;2023-05-10T06:52:34;5.37;;;4.87;;
16673;SDS011;8450;52.654;10.326;2023-05-10T06:54:59;4.23;;;3.93;;
16673;SDS011;8450;52.654;10.326;2023-05-10T06:57:25;4.30;;;3.90;;
16673;SDS011;8450;52.654;10.326;2023-05-10T06:59:51;4.33;;;3.93;;
16673;SDS011;8450;52.654;10.326;2023-05-10T07:02:17;4.37;;;3.97;;
16673;SDS011;8450;52.654;10.326;2023-05-10T07:04:42;5.33;;;4.47;;
16673;SDS011;8450;52.654;10.326;2023-05-10T07:07:08;5.87;;;4.50;;
16673;SDS011;8450;52.654;10.326;2023-05-10T07:09:33;4.67;;;4.27;;
16673;SDS011;8450;52.654;10.326;2023-05-10T07:11:59;4.90;;;4.40;;
16673;SDS011;8450;52.654;10.326;2023-05-10T07:14:26;4.80;;;4.40;;
16673;SDS011;8450;52.654;10.326;2023-05-10T07:16:52;4.70;;;4.30;;
16673;SDS011;8450;52.654;10.326;2023-05-10T07:19:18;4.73;;;4.07;;
16673;SDS011;8450;52.654;10.326;2023-05-10T07:21:44;4.60;;;4.20;;
16673;SDS011;8450;52.654;10.326;2023-05-10T07:24:10;4.17;;;3.77;;
16673;SDS011;8450;52.654;10.326;2023-05-10T07:26:35;5.23;;;4.77;;
16673;SDS011;8450;52.654;10.326;2023-05-10T07:29:01;4.30;;;3.90;;
16673;SDS011;8450;52.654;10.326;2023-05-10T07:31:27;4.30;;;3.90;;
16673;SDS011;8450;52.654;10.326;2023-05-10T07:33:53;4.33;;;3.93;;
16673;SDS011;8450;52.654;10.326;2023-05-10T07:36:18;4.27;;;3.97;;
16673;SDS011;8450;52.654;10.326;2023-05-10T07:38:44;4.40;;;4.00;;
16673;SDS011;8450;52.654;10.326;2023-05-10T07:41:11;4.40;;;4.00;;
16673;SDS011;8450;52.654;10.326;2023-05-10T07:43:36;4.60;;;4.20;;
16673;SDS011;8450;52.654;10.326;2023-05-10T07:46:02;6.17;;;4.47;;
16673;SDS011;8450;52.654;10.326;2023-05-10T07:48:28;4.83;;;4.43;;
16673;SDS011;8450;52.654;10.326;2023-05-10T07:50:53;4.80;;;4.40;;
16673;SDS011;8450;52.654;10.326;2023-05-10T07:53:19;4.53;;;4.13;;
16673;SDS011;8450;52.654;10.326;2023-05-10T07:55:49;4.70;;;4.20;;
16673;SDS011;8450;52.654;10.326;2023-05-10T07:58:15;4.90;;;4.50;;
16673;SDS011;8450;52.654;10.326;2023-05-10T08:00:41;5.80;;;5.30;;
16673;SDS011;8450;52.654;10.326;2023-05-10T08:03:06;5.37;;;4.10;;
16673;SDS011;8450;52.654;10.326;2023-05-10T08:05:32;5.23;;;4.83;;
16673;SDS011;8450;52.654;10.326;2023-05-10T08:07:57;4.60;;;4.20;;
16673;SDS011;8450;52.654;10.326;2023-05-10T08:10:24;5.53;;;5.00;;
16673;SDS011;8450;52.654;10.326;2023-05-10T08:12:50;5.10;;;4.40;;
16673;SDS011;8450;52.654;10.326;2023-05-10T08:15:16;5.10;;;4.70;;
16673;SDS011;8450;52.654;10.326;2023-05-10T08:17:41;5.63;;;5.13;;
16673;SDS011;8450;52.654;10.326;2023-05-10T08:20:08;5.37;;;4.87;;
16673;SDS011;8450;52.654;10.326;2023-05-10T08:22:34;5.77;;;5.27;;
16673;SDS011;8450;52.654;10.326;2023-05-10T08:24:59;5.30;;;4.80;;
16673;SDS011;8450;52.654;10.326;2023-05-10T08:27:25;5.10;;;4.70;;
16673;SDS011;8450;52.654;10.326;2023-05-10T08:29:50;5.53;;;5.03;;
16673;SDS011;8450;52.654;10.326;2023-05-10T08:32:16;5.30;;;4.80;;
16673;SDS011;8450;52.654;10.326;2023-05-10T08:34:42;5.67;;;5.10;;
16673;SDS011;8450;52.654;10.326;2023-05-10T08:37:08;5.60;;;5.10;;
16673;SDS011;8450;52.654;10.326;2023-05-10T08:39:34;6.40;;;5.83;;
16673;SDS011;8450;52.654;10.326;2023-05-10T08:42:01;5.77;;;5.27;;
16673;SDS011;8450;52.654;10.326;2023-05-10T08:44:29;6.30;;;5.70;;
16673;SDS011;8450;52.654;10.326;2023-05-10T08:46:56;5.47;;;5.00;;
16673;SDS011;8450;52.654;10.326;2023-05-10T08:49:24;5.73;;;5.23;;
16673;SDS011;8450;52.654;10.326;2023-05-10T08:51:53;5.47;;;4.97;;
16673;SDS011;8450;52.654;10.326;2023-05-10T08:54:20;5.87;;;5.37;;
16673;SDS011;8450;52.654;10.326;2023-05-10T08:56:46;6.20;;;5.60;;
16673;SDS011;8450;52.654;10.326;2023-05-10T08:59:12;5.80;;;5.30;;
16673;SDS011;8450;52.654;10.326;2023-05-10T09:01:39;5.60;;;5.10;;
16673;SDS011;8450;52.654;10.326;2023-05-10T09:04:07;5.60;;;5.10;;
16673;SDS011;8450;52.654;10.326;2023-05-10T09:06:32;6.37;;;5.77;;
16673;SDS011;8450;52.654;10.326;2023-05-10T09:08:59;5.60;;;5.10;;
16673;SDS011;8450;52.654;10.326;2023-05-10T09:11:25;5.93;;;5.37;;
16673;SDS011;8450;52.654;10.326;2023-05-10T09:13:53;6.17;;;5.53;;
16673;SDS011;8450;52.654;10.326;2023-05-10T09:16:20;4.97;;;4.57;;
16673;SDS011;8450;52.654;10.326;2023-05-10T09:18:45;5.43;;;5.00;;
16673;SDS011;8450;52.654;10.326;2023-05-10T09:21:11;5.73;;;5.23;;
16673;SDS011;8450;52.654;10.326;2023-05-10T09:23:37;5.00;;;4.60;;
16673;SDS011;8450;52.654;10.326;2023-05-10T09:26:05;5.23;;;4.83;;
16673;SDS011;8450;52.654;10.326;2023-05-10T09:28:50;5.33;;;4.83;;
16673;SDS011;8450;52.654;10.326;2023-05-10T09:31:15;5.20;;;4.70;;
16673;SDS011;8450;52.654;10.326;2023-05-10T09:33:44;4.93;;;4.50;;
16673;SDS011;8450;52.654;10.326;2023-05-10T09:36:13;4.77;;;4.43;;
16673;SDS011;8450;52.654;10.326;2023-05-10T09:38:46;5.67;;;5.17;;
16673;SDS011;8450;52.654;10.326;2023-05-10T09:41:22;5.23;;;4.70;;
16673;SDS011;8450;52.654;10.326;2023-05-10T09:43:48;5.20;;;4.80;;
16673;SDS011;8450;52.654;10.326;2023-05-10T09:46:17;5.50;;;5.10;;
16673;SDS011;8450;52.654;10.326;2023-05-10T09:48:44;5.30;;;4.90;;
16673;SDS011;8450;52.654;10.326;2023-05-10T09:51:18;5.03;;;4.63;;
16673;SDS011;8450;52.654;10.326;2023-05-10T09:54:11;5.40;;;5.00;;
16673;SDS011;8450;52.654;10.326;2023-05-10T09:56:40;5.53;;;5.03;;
16673;SDS011;8450;52.654;10.326;2023-05-10T09:59:07;5.03;;;4.63;;
16673;SDS011;8450;52.654;10.326;2023-05-10T10:01:35;5.87;;;5.37;;
16673;SDS011;8450;52.654;10.326;2023-05-10T10:04:05;5.57;;;5.03;;
16673;SDS011;8450;52.654;10.326;2023-05-10T10:06:38;4.20;;;3.90;;
16673;SDS011;8450;52.654;10.326;2023-05-10T10:09:07;4.50;;;4.13;;
16673;SDS011;8450;52.654;10.326;2023-05-10T10:11:34;5.00;;;4.60;;
16673;SDS011;8450;52.654;10.326;2023-05-10T10:14:01;4.83;;;4.43;;
16673;SDS011;8450;52.654;10.326;2023-05-10T10:16:28;5.13;;;4.63;;
16673;SDS011;8450;52.654;10.326;2023-05-10T10:18:55;4.50;;;4.10;;
16673;SDS011;8450;52.654;10.326;2023-05-10T10:21:21;4.50;;;4.20;;
16673;SDS011;8450;52.654;10.326;2023-05-10T10:23:47;4.70;;;4.30;;
16673;SDS011;8450;52.654;10.326;2023-05-10T10:26:13;3.80;;;3.50;;
16673;SDS011;8450;52.654;10.326;2023-05-10T10:31:39;3.90;;;3.60;;
16673;SDS011;8450;52.654;10.326;2023-05-10T10:34:10;3.97;;;3.67;;
16673;SDS011;8450;52.654;10.326;2023-05-10T10:36:43;3.37;;;3.07;;
16673;SDS011;8450;52.654;10.326;2023-05-10T10:39:10;3.60;;;3.30;;
16673;SDS011;8450;52.654;10.326;2023-05-10T10:41:58;3.03;;;2.77;;
16673;SDS011;8450;52.654;10.326;2023-05-10T10:52:32;3.53;;;3.23;;
16673;SDS011;8450;52.654;10.326;2023-05-10T10:54:59;3.67;;;3.37;;
16673;SDS011;8450;52.654;10.326;2023-05-10T10:57:42;3.10;;;2.90;;
16673;SDS011;8450;52.654;10.326;2023-05-10T11:05:41;3.37;;;3.07;;
16673;SDS011;8450;52.654;10.326;2023-05-10T11:13:41;3.67;;;3.37;;
16673;SDS011;8450;52.654;10.326;2023-05-10T11:16:09;3.20;;;2.90;;
16673;SDS011;8450;52.654;10.326;2023-05-10T11:18:37;3.03;;;2.83;;
16673;SDS011;8450;52.654;10.326;2023-05-10T11:21:03;3.37;;;3.07;;
16673;SDS011;8450;52.654;10.326;2023-05-10T11:23:47;2.93;;;2.73;;
16673;SDS011;8450;52.654;10.326;2023-05-10T11:26:14;2.77;;;2.57;;
16673;SDS011;8450;52.654;10.326;2023-05-10T11:28:43;2.60;;;2.40;;
16673;SDS011;8450;52.654;10.326;2023-05-10T11:31:10;3.30;;;3.00;;
16673;SDS011;8450;52.654;10.326;2023-05-10T11:33:50;2.57;;;2.37;;
16673;SDS011;8450;52.654;10.326;2023-05-10T11:36:18;3.30;;;3.00;;
16673;SDS011;8450;52.654;10.326;2023-05-10T11:38:52;2.50;;;2.30;;
16673;SDS011;8450;52.654;10.326;2023-05-10T11:41:18;2.63;;;2.43;;
16673;SDS011;8450;52.654;10.326;2023-05-10T11:43:51;2.93;;;2.67;;
16673;SDS011;8450;52.654;10.326;2023-05-10T11:46:19;2.57;;;2.33;;
16673;SDS011;8450;52.654;10.326;2023-05-10T11:48:45;2.50;;;2.30;;
16673;SDS011;8450;52.654;10.326;2023-05-10T11:51:13;2.60;;;2.07;;
16673;SDS011;8450;52.654;10.326;2023-05-10T11:53:39;2.30;;;2.10;;
16673;SDS011;8450;52.654;10.326;2023-05-10T11:56:05;2.83;;;2.53;;
16673;SDS011;8450;52.654;10.326;2023-05-10T11:58:32;2.73;;;2.47;;
16673;SDS011;8450;52.654;10.326;2023-05-10T12:00:58;2.43;;;2.23;;
16673;SDS011;8450;52.654;10.326;2023-05-10T12:03:24;2.60;;;2.40;;
16673;SDS011;8450;52.654;10.326;2023-05-10T12:05:50;4.73;;;3.73;;
16673;SDS011;8450;52.654;10.326;2023-05-10T12:08:21;3.10;;;2.50;;
16673;SDS011;8450;52.654;10.326;2023-05-10T12:10:49;2.63;;;2.43;;
16673;SDS011;8450;52.654;10.326;2023-05-10T12:13:15;2.80;;;2.57;;
16673;SDS011;8450;52.654;10.326;2023-05-10T12:15:41;2.30;;;2.20;;
16673;SDS011;8450;52.654;10.326;2023-05-10T12:18:08;2.63;;;2.43;;
16673;SDS011;8450;52.654;10.326;2023-05-10T12:20:35;2.23;;;2.03;;
16673;SDS011;8450;52.654;10.326;2023-05-10T12:23:01;3.37;;;3.07;;
16673;SDS011;8450;52.654;10.326;2023-05-10T12:25:34;2.97;;;2.63;;
16673;SDS011;8450;52.654;10.326;2023-05-10T12:28:05;3.40;;;2.57;;
16673;SDS011;8450;52.654;10.326;2023-05-10T12:30:33;3.30;;;3.00;;
16673;SDS011;8450;52.654;10.326;2023-05-10T12:33:07;2.70;;;2.50;;
16673;SDS011;8450;52.654;10.326;2023-05-10T12:35:43;2.80;;;2.60;;
16673;SDS011;8450;52.654;10.326;2023-05-10T12:38:28;2.33;;;2.13;;
16673;SDS011;8450;52.654;10.326;2023-05-10T12:40:57;2.40;;;2.20;;
16673;SDS011;8450;52.654;10.326;2023-05-10T12:43:24;2.60;;;2.40;;
16673;SDS011;8450;52.654;10.326;2023-05-10T12:45:50;2.30;;;2.10;;
16673;SDS011;8450;52.654;10.326;2023-05-10T12:48:15;2.23;;;2.13;;
16673;SDS011;8450;52.654;10.326;2023-05-10T12:50:41;2.13;;;1.93;;
16673;SDS011;8450;52.654;10.326;2023-05-10T12:53:06;2.50;;;2.30;;
16673;SDS011;8450;52.654;10.326;2023-05-10T12:55:32;2.17;;;2.00;;
16673;SDS011;8450;52.654;10.326;2023-05-10T12:57:58;1.90;;;1.80;;
16673;SDS011;8450;52.654;10.326;2023-05-10T13:00:23;2.27;;;2.07;;
16673;SDS011;8450;52.654;10.326;2023-05-10T13:02:49;2.40;;;2.20;;
16673;SDS011;8450;52.654;10.326;2023-05-10T13:05:14;2.00;;;1.90;;
16673;SDS011;8450;52.654;10.326;2023-05-10T13:07:40;1.97;;;1.87;;
16673;SDS011;8450;52.654;10.326;2023-05-10T13:10:06;2.40;;;2.00;;
16673;SDS011;8450;52.654;10.326;2023-05-10T13:12:32;2.20;;;2.10;;
16673;SDS011;8450;52.654;10.326;2023-05-10T13:14:57;2.20;;;2.10;;
16673;SDS011;8450;52.654;10.326;2023-05-10T13:17:24;2.50;;;2.30;;
16673;SDS011;8450;52.654;10.326;2023-05-10T13:19:50;2.50;;;2.30;;
16673;SDS011;8450;52.654;10.326;2023-05-10T13:22:16;2.20;;;2.10;;
16673;SDS011;8450;52.654;10.326;2023-05-10T13:24:42;1.93;;;1.83;;
16673;SDS011;8450;52.654;10.326;2023-05-10T13:27:08;2.20;;;2.10;;
16673;SDS011;8450;52.654;10.326;2023-05-10T13:29:33;2.13;;;2.03;;
16673;SDS011;8450;52.654;10.326;2023-05-10T13:31:59;1.90;;;1.80;;
16673;SDS011;8450;52.654;10.326;2023-05-10T13:34:25;2.13;;;1.93;;
16673;SDS011;8450;52.654;10.326;2023-05-10T13:36:50;2.30;;;2.10;;
16673;SDS011;8450;52.654;10.326;2023-05-10T13:39:16;2.40;;;2.20;;
16673;SDS011;8450;52.654;10.326;2023-05-10T13:41:41;2.60;;;2.40;;
16673;SDS011;8450;52.654;10.326;2023-05-10T13:44:07;2.30;;;2.10;;
16673;SDS011;8450;52.654;10.326;2023-05-10T13:46:33;2.00;;;1.90;;
16673;SDS011;8450;52.654;10.326;2023-05-10T13:48:58;2.50;;;2.40;;
16673;SDS011;8450;52.654;10.326;2023-05-10T13:51:24;2.57;;;2.37;;
16673;SDS011;8450;52.654;10.326;2023-05-10T13:53:49;2.50;;;2.30;;
16673;SDS011;8450;52.654;10.326;2023-05-10T13:56:15;2.57;;;2.37;;
16673;SDS011;8450;52.654;10.326;2023-05-10T13:58:41;3.00;;;2.27;;
16673;SDS011;8450;52.654;10.326;2023-05-10T14:01:06;2.67;;;2.47;;
16673;SDS011;8450;52.654;10.326;2023-05-10T14:03:32;2.47;;;2.27;;
16673;SDS011;8450;52.654;10.326;2023-05-10T14:05:58;2.47;;;2.27;;
16673;SDS011;8450;52.654;10.326;2023-05-10T14:08:23;2.43;;;2.23;;
16673;SDS011;8450;52.654;10.326;2023-05-10T14:10:49;2.40;;;2.20;;
16673;SDS011;8450;52.654;10.326;2023-05-10T14:13:15;2.30;;;2.10;;
16673;SDS011;8450;52.654;10.326;2023-05-10T14:15:41;2.77;;;2.57;;
16673;SDS011;8450;52.654;10.326;2023-05-10T14:18:06;2.67;;;2.47;;
16673;SDS011;8450;52.654;10.326;2023-05-10T14:20:32;2.50;;;2.30;;
16673;SDS011;8450;52.654;10.326;2023-05-10T14:22:59;3.93;;;2.50;;
16673;SDS011;8450;52.654;10.326;2023-05-10T14:25:24;2.43;;;2.30;;
16673;SDS011;8450;52.654;10.326;2023-05-10T14:27:50;2.47;;;2.27;;
16673;SDS011;8450;52.654;10.326;2023-05-10T14:30:16;2.70;;;2.50;;
16673;SDS011;8450;52.654;10.326;2023-05-10T14:32:42;2.93;;;2.73;;
16673;SDS011;8450;52.654;10.326;2023-05-10T14:35:07;2.40;;;2.20;;
16673;SDS011;8450;52.654;10.326;2023-05-10T14:37:33;2.30;;;2.20;;
16673;SDS011;8450;52.654;10.326;2023-05-10T14:39:59;2.53;;;2.33;;
16673;SDS011;8450;52.654;10.326;2023-05-10T14:42:25;2.97;;;2.70;;
16673;SDS011;8450;52.654;10.326;2023-05-10T14:44:51;2.60;;;2.40;;
16673;SDS011;8450;52.654;10.326;2023-05-10T14:47:16;4.10;;;2.40;;
16673;SDS011;8450;52.654;10.326;2023-05-10T14:49:42;2.60;;;2.40;;
16673;SDS011;8450;52.654;10.326;2023-05-10T14:52:07;2.37;;;2.17;;
16673;SDS011;8450;52.654;10.326;2023-05-10T14:54:33;2.70;;;2.50;;
16673;SDS011;8450;52.654;10.326;2023-05-10T14:56:58;2.20;;;2.10;;
16673;SDS011;8450;52.654;10.326;2023-05-10T14:59:25;2.27;;;2.07;;
16673;SDS011;8450;52.654;10.326;2023-05-10T15:01:50;2.57;;;2.20;;
16673;SDS011;8450;52.654;10.326;2023-05-10T15:04:16;1.63;;;1.53;;
16673;SDS011;8450;52.654;10.326;2023-05-10T15:06:41;1.63;;;1.53;;
16673;SDS011;8450;52.654;10.326;2023-05-10T15:09:07;1.60;;;1.50;;
16673;SDS011;8450;52.654;10.326;2023-05-10T15:11:33;1.40;;;1.30;;
16673;SDS011;8450;52.654;10.326;2023-05-10T15:13:59;1.70;;;1.30;;
16673;SDS011;8450;52.654;10.326;2023-05-10T15:16:26;1.60;;;1.50;;
16673;SDS011;8450;52.654;10.326;2023-05-10T15:18:52;1.67;;;1.30;;
16673;SDS011;8450;52.654;10.326;2023-05-10T15:21:17;2.47;;;1.60;;
16673;SDS011;8450;52.654;10.326;2023-05-10T15:23:43;1.73;;;1.53;;
16673;SDS011;8450;52.654;10.326;2023-05-10T15:26:09;1.53;;;1.43;;
16673;SDS011;8450;52.654;10.326;2023-05-10T15:28:34;1.87;;;1.50;;
16673;SDS011;8450;52.654;10.326;2023-05-10T15:31:00;1.57;;;1.30;;
16673;SDS011;8450;52.654;10.326;2023-05-10T15:33:25;1.70;;;1.60;;
16673;SDS011;8450;52.654;10.326;2023-05-10T15:35:52;3.80;;;1.57;;
16673;SDS011;8450;52.654;10.326;2023-05-10T15:38:18;2.30;;;1.63;;
16673;SDS011;8450;52.654;10.326;2023-05-10T15:40:44;1.97;;;1.67;;
16673;SDS011;8450;52.654;10.326;2023-05-10T15:43:09;1.80;;;1.70;;
16673;SDS011;8450;52.654;10.326;2023-05-10T15:45:35;1.67;;;1.57;;
16673;SDS011;8450;52.654;10.326;2023-05-10T15:48:00;2.90;;;1.83;;
16673;SDS011;8450;52.654;10.326;2023-05-10T15:50:26;1.93;;;1.70;;
16673;SDS011;8450;52.654;10.326;2023-05-10T15:52:52;2.17;;;2.00;;
16673;SDS011;8450;52.654;10.326;2023-05-10T15:55:18;2.30;;;2.10;;
16673;SDS011;8450;52.654;10.326;2023-05-10T15:57:44;2.40;;;2.20;;
16673;SDS011;8450;52.654;10.326;2023-05-10T16:00:10;1.87;;;1.77;;
16673;SDS011;8450;52.654;10.326;2023-05-10T16:02:40;2.20;;;2.00;;
16673;SDS011;8450;52.654;10.326;2023-05-10T16:05:05;2.00;;;1.80;;
16673;SDS011;8450;52.654;10.326;2023-05-10T16:07:32;1.87;;;1.77;;
16673;SDS011;8450;52.654;10.326;2023-05-10T16:09:58;1.80;;;1.70;;
16673;SDS011;8450;52.654;10.326;2023-05-10T16:12:23;1.90;;;1.80;;
16673;SDS011;8450;52.654;10.326;2023-05-10T16:14:49;2.17;;;1.97;;
16673;SDS011;8450;52.654;10.326;2023-05-10T16:17:14;2.73;;;1.80;;
16673;SDS011;8450;52.654;10.326;2023-05-10T16:19:40;1.73;;;1.63;;
16673;SDS011;8450;52.654;10.326;2023-05-10T16:22:06;2.50;;;2.30;;
16673;SDS011;8450;52.654;10.326;2023-05-10T16:24:31;2.60;;;2.40;;
16673;SDS011;8450;52.654;10.326;2023-05-10T16:26:57;2.70;;;2.50;;
16673;SDS011;8450;52.654;10.326;2023-05-10T16:29:23;2.97;;;2.10;;
16673;SDS011;8450;52.654;10.326;2023-05-10T16:31:48;1.93;;;1.80;;
16673;SDS011;8450;52.654;10.326;2023-05-10T16:34:14;2.73;;;2.53;;
16673;SDS011;8450;52.654;10.326;2023-05-10T16:36:40;2.40;;;2.20;;
16673;SDS011;8450;52.654;10.326;2023-05-10T16:39:06;2.53;;;2.33;;
16673;SDS011;8450;52.654;10.326;2023-05-10T16:41:33;2.57;;;2.37;;
16673;SDS011;8450;52.654;10.326;2023-05-10T16:43:59;2.30;;;2.10;;
16673;SDS011;8450;52.654;10.326;2023-05-10T16:46:25;2.53;;;2.33;;
16673;SDS011;8450;52.654;10.326;2023-05-10T16:48:51;2.30;;;2.10;;
16673;SDS011;8450;52.654;10.326;2023-05-10T16:51:16;2.30;;;2.10;;
16673;SDS011;8450;52.654;10.326;2023-05-10T16:53:42;2.20;;;2.00;;
16673;SDS011;8450;52.654;10.326;2023-05-10T16:56:07;2.97;;;2.47;;
16673;SDS011;8450;52.654;10.326;2023-05-10T16:58:34;2.97;;;2.77;;
16673;SDS011;8450;52.654;10.326;2023-05-10T17:01:00;2.40;;;2.20;;
16673;SDS011;8450;52.654;10.326;2023-05-10T17:03:25;2.43;;;2.23;;
16673;SDS011;8450;52.654;10.326;2023-05-10T17:05:51;2.60;;;2.40;;
16673;SDS011;8450;52.654;10.326;2023-05-10T17:08:17;2.07;;;1.97;;
16673;SDS011;8450;52.654;10.326;2023-05-10T17:10:42;2.07;;;1.97;;
16673;SDS011;8450;52.654;10.326;2023-05-10T17:13:08;2.33;;;2.13;;
16673;SDS011;8450;52.654;10.326;2023-05-10T17:15:37;2.77;;;2.57;;
16673;SDS011;8450;52.654;10.326;2023-05-10T17:18:02;3.07;;;2.30;;
16673;SDS011;8450;52.654;10.326;2023-05-10T17:20:29;2.23;;;2.03;;
16673;SDS011;8450;52.654;10.326;2023-05-10T17:22:54;2.23;;;2.03;;
16673;SDS011;8450;52.654;10.326;2023-05-10T17:25:20;2.37;;;2.17;;
16673;SDS011;8450;52.654;10.326;2023-05-10T17:27:45;2.10;;;2.00;;
16673;SDS011;8450;52.654;10.326;2023-05-10T17:30:11;2.07;;;1.97;;
16673;SDS011;8450;52.654;10.326;2023-05-10T17:32:37;3.40;;;2.53;;
16673;SDS011;8450;52.654;10.326;2023-05-10T17:35:02;2.23;;;2.10;;
16673;SDS011;8450;52.654;10.326;2023-05-10T17:37:29;2.63;;;2.43;;
16673;SDS011;8450;52.654;10.326;2023-05-10T17:39:56;2.37;;;2.20;;
16673;SDS011;8450;52.654;10.326;2023-05-10T17:42:23;2.67;;;2.47;;
16673;SDS011;8450;52.654;10.326;2023-05-10T17:44:49;3.00;;;2.70;;
16673;SDS011;8450;52.654;10.326;2023-05-10T17:47:15;2.90;;;2.70;;
16673;SDS011;8450;52.654;10.326;2023-05-10T17:49:42;4.60;;;3.33;;
16673;SDS011;8450;52.654;10.326;2023-05-10T17:52:07;3.13;;;2.83;;
16673;SDS011;8450;52.654;10.326;2023-05-10T17:54:33;3.50;;;3.20;;
16673;SDS011;8450;52.654;10.326;2023-05-10T17:56:58;3.37;;;3.07;;
16673;SDS011;8450;52.654;10.326;2023-05-10T17:59:25;2.97;;;2.77;;
16673;SDS011;8450;52.654;10.326;2023-05-10T18:01:50;3.40;;;3.10;;
16673;SDS011;8450;52.654;10.326;2023-05-10T18:04:16;4.27;;;3.87;;
16673;SDS011;8450;52.654;10.326;2023-05-10T18:06:42;3.30;;;3.10;;
16673;SDS011;8450;52.654;10.326;2023-05-10T18:09:07;4.10;;;3.53;;
16673;SDS011;8450;52.654;10.326;2023-05-10T18:11:34;3.77;;;3.43;;
16673;SDS011;8450;52.654;10.326;2023-05-10T18:14:00;3.70;;;3.30;;
